CYZE

Gore Bay Manitoulin Airport

Gore Bay, Ontario, Canada
TAF CYZE 231338Z 2314/2322 25006KT P6SM BKN030 TEMPO 2314/2316 5SM -RA BR OVC015 FM231600 06012KT P6SM SCT015 OVC025 TEMPO 2316/2322 4SM -SHRA BR OVC015 PROB30 2316/2320 BKN006 OVC015 RMK FCST BASED ON AUTO OBS. NXT FCST BY 232000Z
Issued Valid From Valid To
Sep-23 @ 13:38 UTC
(an hour ago)
Sep-23 @ 14:00 UTC
(40 minutes ago)
Sep-23 @ 22:00 UTC
(in 7 hours)
to
to
to
to
to
TAF CYZE 231338Z 2314/2322 25006KT P6SM BKN030 TEMPO 2314/2316 5SM -RA BR OVC015 FM231600 06012KT P6SM SCT015 OVC025 TEMPO 2316/2322 4SM -SHRA BR OVC015 PROB30 2316/2320 BKN006 OVC015 RMK FCST BASED ON AUTO OBS. NXT FCST BY 232000Z
Issued Sep-23 @ 13:38 UTC
(an hour ago)
Valid From Sep-23 @ 14:00 UTC
(40 minutes ago)
Valid To Sep-23 @ 22:00 UTC
(in 7 hours)
-
-
-
-
-